MTN001 KSFO-KMTJ
Flight info
| Callsign | MTN001 |
|---|---|
| Flight time | 1h 32m |
| Altitude | 35000 |
| Route | TRUKN2 SYRAH Q128 TABLL ERRDA MTJ |
| Aircraft | E75L/M-SDE3GILORVW/S |
Departure
| Time | 2026-04-16 13:41 |
|---|---|
| Airport | San Francisco International Airport (KSFO) |
Arrival
| Time | 2026-04-16 15:13 |
|---|---|
| Airport | Montrose Regional Airport (KMTJ) |
| Time | Latitude | Longitude | Altitude | Speed | Heading |
|---|---|---|---|---|---|
| 2026-04-16 13:00 | 37.62053 | -122.38648 | 20 ft | 0 kts | 297° |
| 2026-04-16 13:23 | 37.62043 | -122.38625 | 20 ft | 4 kts | 302° |
| 2026-04-16 13:23 | 37.62026 | -122.38601 | 20 ft | 4 kts | 338° |
| 2026-04-16 13:23 | 37.62011 | -122.38602 | 21 ft | 1 kts | 28° |
| 2026-04-16 13:23 | 37.62008 | -122.38604 | 20 ft | 0 kts | 28° |
| 2026-04-16 13:31 | 37.62013 | -122.38601 | 21 ft | 2 kts | 28° |
| 2026-04-16 13:31 | 37.62035 | -122.38586 | 20 ft | 5 kts | 28° |
| 2026-04-16 13:31 | 37.62045 | -122.38579 | 21 ft | 0 kts | 28° |
| 2026-04-16 13:35 | 37.62076 | -122.38551 | 21 ft | 8 kts | 47° |
| 2026-04-16 13:35 | 37.62078 | -122.38474 | 22 ft | 12 kts | 110° |
| 2026-04-16 13:36 | 37.62030 | -122.38337 | 20 ft | 19 kts | 121° |
| 2026-04-16 13:36 | 37.61961 | -122.38187 | 21 ft | 21 kts | 118° |
| 2026-04-16 13:36 | 37.61893 | -122.38025 | 20 ft | 21 kts | 117° |
| 2026-04-16 13:36 | 37.61831 | -122.37860 | 20 ft | 22 kts | 111° |
| 2026-04-16 13:37 | 37.61776 | -122.37675 | 20 ft | 23 kts | 111° |
| 2026-04-16 13:37 | 37.61709 | -122.37483 | 20 ft | 25 kts | 116° |
| 2026-04-16 13:37 | 37.61626 | -122.37280 | 20 ft | 27 kts | 117° |
| 2026-04-16 13:37 | 37.61538 | -122.37065 | 20 ft | 28 kts | 117° |
| 2026-04-16 13:38 | 37.61436 | -122.36880 | 21 ft | 25 kts | 132° |
| 2026-04-16 13:38 | 37.61339 | -122.36712 | 21 ft | 24 kts | 120° |
| 2026-04-16 13:38 | 37.61258 | -122.36521 | 21 ft | 26 kts | 118° |
| 2026-04-16 13:38 | 37.61173 | -122.36318 | 20 ft | 27 kts | 117° |
| 2026-04-16 13:39 | 37.61098 | -122.36145 | 21 ft | 21 kts | 118° |
| 2026-04-16 13:39 | 37.61050 | -122.36013 | 20 ft | 13 kts | 85° |
| 2026-04-16 13:39 | 37.61081 | -122.35931 | 21 ft | 6 kts | 65° |
| 2026-04-16 13:39 | 37.61106 | -122.35901 | 20 ft | 2 kts | 27° |
| 2026-04-16 13:40 | 37.61125 | -122.35889 | 22 ft | 5 kts | 26° |
| 2026-04-16 13:40 | 37.61182 | -122.35886 | 20 ft | 15 kts | 339° |
| 2026-04-16 13:40 | 37.61219 | -122.35949 | 20 ft | 9 kts | 295° |
| 2026-04-16 13:40 | 37.61356 | -122.36278 | 20 ft | 83 kts | 298° |
| 2026-04-16 13:41 | 37.61750 | -122.37218 | 61 ft | 152 kts | 298° |
| 2026-04-16 13:41 | 37.62235 | -122.38447 | 967 ft | 157 kts | 294° |
| 2026-04-16 13:41 | 37.62704 | -122.39758 | 1689 ft | 171 kts | 302° |
| 2026-04-16 13:41 | 37.63636 | -122.40826 | 2057 ft | 197 kts | 338° |
| 2026-04-16 13:42 | 37.65033 | -122.41055 | 2822 ft | 209 kts | 6° |
| 2026-04-16 13:42 | 37.66465 | -122.40631 | 3643 ft | 226 kts | 19° |
| 2026-04-16 13:42 | 37.67910 | -122.39546 | 4122 ft | 257 kts | 42° |
| 2026-04-16 13:42 | 37.68898 | -122.37593 | 5040 ft | 271 kts | 63° |
| 2026-04-16 13:43 | 37.69565 | -122.35323 | 6072 ft | 279 kts | 69° |
| 2026-04-16 13:43 | 37.70117 | -122.32951 | 7111 ft | 283 kts | 71° |
| 2026-04-16 13:43 | 37.70632 | -122.30538 | 8104 ft | 287 kts | 72° |
| 2026-04-16 13:43 | 37.71093 | -122.28062 | 9047 ft | 292 kts | 73° |
| 2026-04-16 13:44 | 37.71513 | -122.25519 | 9957 ft | 300 kts | 75° |
| 2026-04-16 13:44 | 37.71872 | -122.22851 | 10542 ft | 318 kts | 76° |
| 2026-04-16 13:44 | 37.72550 | -122.20137 | 10987 ft | 331 kts | 58° |
| 2026-04-16 13:44 | 37.73737 | -122.17603 | 11715 ft | 338 kts | 52° |
| 2026-04-16 13:45 | 37.75059 | -122.15118 | 12619 ft | 343 kts | 51° |
| 2026-04-16 13:45 | 37.76409 | -122.12589 | 13544 ft | 350 kts | 52° |
| 2026-04-16 13:45 | 37.77772 | -122.09989 | 14428 ft | 358 kts | 52° |
| 2026-04-16 13:45 | 37.79134 | -122.07378 | 15345 ft | 363 kts | 52° |
| 2026-04-16 13:46 | 37.80536 | -122.04696 | 16247 ft | 368 kts | 51° |
| 2026-04-16 13:46 | 37.81964 | -122.01980 | 17096 ft | 374 kts | 52° |
| 2026-04-16 13:46 | 37.83149 | -121.98966 | 17751 ft | 391 kts | 67° |
| 2026-04-16 13:46 | 37.83882 | -121.95577 | 18305 ft | 408 kts | 74° |
| 2026-04-16 13:47 | 37.84469 | -121.92010 | 18933 ft | 415 kts | 75° |
| 2026-04-16 13:47 | 37.85081 | -121.88418 | 19672 ft | 420 kts | 73° |
| 2026-04-16 13:47 | 37.85723 | -121.84842 | 20397 ft | 424 kts | 73° |
| 2026-04-16 13:47 | 37.86175 | -121.82382 | 20878 ft | 427 kts | 73° |
| 2026-04-16 13:48 | 37.86855 | -121.78696 | 21520 ft | 432 kts | 73° |
| 2026-04-16 13:48 | 37.87543 | -121.74973 | 22119 ft | 437 kts | 73° |
| 2026-04-16 13:48 | 37.88464 | -121.69970 | 22897 ft | 443 kts | 73° |
| 2026-04-16 13:48 | 37.89166 | -121.66155 | 23465 ft | 448 kts | 73° |
| 2026-04-16 13:49 | 37.89873 | -121.62297 | 23993 ft | 452 kts | 73° |
| 2026-04-16 13:49 | 37.90354 | -121.59672 | 24348 ft | 454 kts | 73° |
| 2026-04-16 13:49 | 37.91067 | -121.55761 | 24892 ft | 457 kts | 73° |
| 2026-04-16 13:49 | 37.91786 | -121.51815 | 25401 ft | 461 kts | 73° |
| 2026-04-16 13:50 | 37.92497 | -121.47902 | 25906 ft | 464 kts | 73° |
| 2026-04-16 13:50 | 37.93221 | -121.43901 | 26397 ft | 468 kts | 73° |
| 2026-04-16 13:50 | 37.93950 | -121.39871 | 26862 ft | 471 kts | 73° |
| 2026-04-16 13:50 | 37.94682 | -121.35808 | 27317 ft | 474 kts | 73° |
| 2026-04-16 13:51 | 37.95419 | -121.31706 | 27746 ft | 478 kts | 73° |
| 2026-04-16 13:51 | 37.96157 | -121.27585 | 28165 ft | 481 kts | 73° |
| 2026-04-16 13:51 | 37.96896 | -121.23447 | 28617 ft | 483 kts | 74° |
| 2026-04-16 13:51 | 37.97632 | -121.19305 | 29222 ft | 481 kts | 74° |
| 2026-04-16 13:52 | 37.98367 | -121.15162 | 29813 ft | 480 kts | 74° |
| 2026-04-16 13:52 | 37.99099 | -121.11031 | 30339 ft | 479 kts | 74° |
| 2026-04-16 13:52 | 37.99801 | -121.06906 | 30815 ft | 479 kts | 76° |
| 2026-04-16 13:52 | 38.00433 | -121.02763 | 31264 ft | 479 kts | 76° |
| 2026-04-16 13:53 | 38.01056 | -120.98618 | 31712 ft | 478 kts | 76° |
| 2026-04-16 13:53 | 38.01685 | -120.94474 | 32151 ft | 477 kts | 76° |
| 2026-04-16 13:53 | 38.02316 | -120.90346 | 32572 ft | 477 kts | 76° |
| 2026-04-16 13:53 | 38.02946 | -120.86214 | 32986 ft | 476 kts | 77° |
| 2026-04-16 13:54 | 38.03569 | -120.82082 | 33388 ft | 476 kts | 77° |
| 2026-04-16 13:54 | 38.04183 | -120.78014 | 33793 ft | 475 kts | 77° |
| 2026-04-16 13:54 | 38.04807 | -120.73891 | 34153 ft | 475 kts | 77° |
| 2026-04-16 13:54 | 38.05429 | -120.69780 | 34474 ft | 475 kts | 77° |
| 2026-04-16 13:55 | 38.06050 | -120.65664 | 34795 ft | 474 kts | 77° |
| 2026-04-16 13:55 | 38.06675 | -120.61551 | 35106 ft | 473 kts | 77° |
| 2026-04-16 13:55 | 38.07301 | -120.57412 | 35203 ft | 480 kts | 77° |
| 2026-04-16 13:56 | 38.08569 | -120.48933 | 35091 ft | 498 kts | 78° |
| 2026-04-16 13:56 | 38.09848 | -120.40289 | 35062 ft | 505 kts | 78° |
| 2026-04-16 13:57 | 38.11153 | -120.31533 | 35060 ft | 505 kts | 78° |
| 2026-04-16 13:57 | 38.12452 | -120.22746 | 35033 ft | 505 kts | 78° |
| 2026-04-16 13:58 | 38.14390 | -120.09587 | 35035 ft | 505 kts | 78° |
| 2026-04-16 13:58 | 38.15673 | -120.00850 | 35024 ft | 506 kts | 78° |
| 2026-04-16 13:59 | 38.16952 | -119.92053 | 35008 ft | 505 kts | 79° |
| 2026-04-16 13:59 | 38.18216 | -119.83270 | 35005 ft | 505 kts | 79° |
| 2026-04-16 14:00 | 38.19478 | -119.74463 | 34998 ft | 506 kts | 79° |
| 2026-04-16 14:00 | 38.20748 | -119.65666 | 34984 ft | 506 kts | 79° |
| 2026-04-16 14:01 | 38.21996 | -119.56920 | 34970 ft | 506 kts | 79° |
| 2026-04-16 14:01 | 38.23243 | -119.48092 | 34954 ft | 506 kts | 79° |
| 2026-04-16 14:02 | 38.24475 | -119.39262 | 34946 ft | 507 kts | 79° |
| 2026-04-16 14:02 | 38.25718 | -119.30411 | 34927 ft | 508 kts | 79° |
| 2026-04-16 14:03 | 38.26962 | -119.21536 | 34915 ft | 509 kts | 80° |
| 2026-04-16 14:03 | 38.28181 | -119.12699 | 34898 ft | 511 kts | 80° |
| 2026-04-16 14:04 | 38.29403 | -119.03778 | 34892 ft | 511 kts | 80° |
| 2026-04-16 14:04 | 38.30631 | -118.94849 | 34890 ft | 512 kts | 80° |
| 2026-04-16 14:05 | 38.31851 | -118.85889 | 34926 ft | 513 kts | 81° |
| 2026-04-16 14:05 | 38.33071 | -118.76915 | 34946 ft | 514 kts | 81° |
| 2026-04-16 14:06 | 38.34289 | -118.67925 | 34967 ft | 516 kts | 81° |
| 2026-04-16 14:06 | 38.35492 | -118.58967 | 34970 ft | 516 kts | 81° |
| 2026-04-16 14:07 | 38.36686 | -118.49930 | 34966 ft | 517 kts | 81° |
| 2026-04-16 14:07 | 38.37877 | -118.40876 | 34939 ft | 518 kts | 81° |
| 2026-04-16 14:08 | 38.39067 | -118.31802 | 34925 ft | 518 kts | 81° |
| 2026-04-16 14:08 | 38.40246 | -118.22788 | 34888 ft | 519 kts | 81° |
| 2026-04-16 14:09 | 38.41436 | -118.13682 | 34877 ft | 520 kts | 81° |
| 2026-04-16 14:09 | 38.42621 | -118.04610 | 34889 ft | 520 kts | 81° |
| 2026-04-16 14:10 | 38.43802 | -117.95513 | 34898 ft | 520 kts | 81° |
| 2026-04-16 14:10 | 38.44967 | -117.86409 | 34893 ft | 520 kts | 81° |
| 2026-04-16 14:11 | 38.46121 | -117.77296 | 34899 ft | 520 kts | 81° |
| 2026-04-16 14:11 | 38.47270 | -117.68210 | 34893 ft | 520 kts | 81° |
| 2026-04-16 14:12 | 38.48416 | -117.59068 | 34899 ft | 520 kts | 81° |
| 2026-04-16 14:12 | 38.49540 | -117.50004 | 34905 ft | 520 kts | 82° |
| 2026-04-16 14:13 | 38.50666 | -117.40883 | 34901 ft | 520 kts | 82° |
| 2026-04-16 14:13 | 38.51786 | -117.31743 | 34898 ft | 520 kts | 82° |
| 2026-04-16 14:14 | 38.52491 | -117.22566 | 34903 ft | 518 kts | 89° |
| 2026-04-16 14:14 | 38.52829 | -117.13367 | 34890 ft | 518 kts | 88° |
| 2026-04-16 14:15 | 38.53256 | -117.04233 | 34892 ft | 518 kts | 88° |
| 2026-04-16 14:15 | 38.53715 | -116.95056 | 34887 ft | 517 kts | 88° |
| 2026-04-16 14:16 | 38.54161 | -116.85890 | 34892 ft | 517 kts | 88° |
| 2026-04-16 14:16 | 38.54615 | -116.76729 | 34888 ft | 517 kts | 88° |
| 2026-04-16 14:17 | 38.55060 | -116.67571 | 34879 ft | 516 kts | 88° |
| 2026-04-16 14:17 | 38.55496 | -116.58416 | 34874 ft | 516 kts | 88° |
| 2026-04-16 14:18 | 38.55922 | -116.49244 | 34863 ft | 516 kts | 89° |
| 2026-04-16 14:18 | 38.56342 | -116.40096 | 34853 ft | 516 kts | 89° |
| 2026-04-16 14:19 | 38.56747 | -116.30998 | 34846 ft | 516 kts | 89° |
| 2026-04-16 14:19 | 38.57146 | -116.21826 | 34841 ft | 517 kts | 89° |
| 2026-04-16 14:20 | 38.57553 | -116.12635 | 34833 ft | 517 kts | 89° |
| 2026-04-16 14:20 | 38.57941 | -116.03454 | 34837 ft | 518 kts | 89° |
| 2026-04-16 14:21 | 38.58324 | -115.94263 | 34825 ft | 518 kts | 89° |
| 2026-04-16 14:21 | 38.58693 | -115.85060 | 34829 ft | 518 kts | 89° |
| 2026-04-16 14:22 | 38.59067 | -115.75921 | 34828 ft | 518 kts | 89° |
| 2026-04-16 14:22 | 38.59432 | -115.66709 | 34818 ft | 519 kts | 89° |
| 2026-04-16 14:23 | 38.59789 | -115.57496 | 34813 ft | 519 kts | 89° |
| 2026-04-16 14:23 | 38.60136 | -115.48296 | 34812 ft | 519 kts | 89° |
| 2026-04-16 14:24 | 38.60481 | -115.39086 | 34816 ft | 518 kts | 90° |
| 2026-04-16 14:24 | 38.60818 | -115.29851 | 34803 ft | 519 kts | 90° |
| 2026-04-16 14:25 | 38.61163 | -115.20634 | 34799 ft | 518 kts | 90° |
| 2026-04-16 14:25 | 38.61495 | -115.11486 | 34794 ft | 519 kts | 90° |
| 2026-04-16 14:26 | 38.61818 | -115.02267 | 34794 ft | 519 kts | 90° |
| 2026-04-16 14:26 | 38.62128 | -114.93041 | 34789 ft | 518 kts | 90° |
| 2026-04-16 14:27 | 38.62430 | -114.83843 | 34790 ft | 517 kts | 90° |
| 2026-04-16 14:27 | 38.62724 | -114.74650 | 34794 ft | 517 kts | 90° |
| 2026-04-16 14:28 | 38.63012 | -114.65530 | 34792 ft | 516 kts | 90° |
| 2026-04-16 14:28 | 38.63295 | -114.56361 | 34795 ft | 516 kts | 90° |
| 2026-04-16 14:29 | 38.63576 | -114.47189 | 34801 ft | 516 kts | 90° |
| 2026-04-16 14:29 | 38.63855 | -114.38022 | 34794 ft | 515 kts | 91° |
| 2026-04-16 14:30 | 38.64081 | -114.28840 | 34796 ft | 515 kts | 91° |
| 2026-04-16 14:30 | 38.64331 | -114.19743 | 34798 ft | 514 kts | 90° |
| 2026-04-16 14:31 | 38.64582 | -114.10596 | 34796 ft | 514 kts | 91° |
| 2026-04-16 14:31 | 38.64809 | -114.01451 | 34797 ft | 514 kts | 91° |
| 2026-04-16 14:32 | 38.65047 | -113.92320 | 34797 ft | 513 kts | 91° |
| 2026-04-16 14:32 | 38.65268 | -113.83188 | 34800 ft | 514 kts | 91° |
| 2026-04-16 14:33 | 38.65477 | -113.74035 | 34800 ft | 514 kts | 91° |
| 2026-04-16 14:33 | 38.65687 | -113.64937 | 34802 ft | 514 kts | 91° |
| 2026-04-16 14:34 | 38.65893 | -113.55788 | 34793 ft | 514 kts | 91° |
| 2026-04-16 14:34 | 38.66111 | -113.46640 | 34806 ft | 514 kts | 91° |
| 2026-04-16 14:35 | 38.66268 | -113.39024 | 34809 ft | 515 kts | 91° |
| 2026-04-16 14:35 | 38.66435 | -113.29859 | 34828 ft | 515 kts | 91° |
| 2026-04-16 14:36 | 38.66615 | -113.20685 | 34855 ft | 515 kts | 91° |
| 2026-04-16 14:36 | 38.66530 | -113.11541 | 34887 ft | 513 kts | 97° |
| 2026-04-16 14:37 | 38.66095 | -113.02412 | 34878 ft | 514 kts | 96° |
| 2026-04-16 14:37 | 38.65777 | -112.93334 | 34880 ft | 514 kts | 96° |
| 2026-04-16 14:38 | 38.65485 | -112.84176 | 34866 ft | 514 kts | 96° |
| 2026-04-16 14:38 | 38.65186 | -112.75014 | 34860 ft | 515 kts | 96° |
| 2026-04-16 14:39 | 38.64883 | -112.65910 | 34839 ft | 515 kts | 96° |
| 2026-04-16 14:39 | 38.64569 | -112.56746 | 34846 ft | 515 kts | 96° |
| 2026-04-16 14:40 | 38.64251 | -112.47575 | 34854 ft | 515 kts | 96° |
| 2026-04-16 14:40 | 38.63924 | -112.38421 | 34863 ft | 515 kts | 96° |
| 2026-04-16 14:41 | 38.63592 | -112.29261 | 34867 ft | 515 kts | 96° |
| 2026-04-16 14:41 | 38.63251 | -112.20124 | 34860 ft | 515 kts | 96° |
| 2026-04-16 14:42 | 38.62903 | -112.11030 | 34867 ft | 515 kts | 96° |
| 2026-04-16 14:42 | 38.62552 | -112.01880 | 34884 ft | 514 kts | 96° |
| 2026-04-16 14:43 | 38.62196 | -111.92758 | 34871 ft | 514 kts | 97° |
| 2026-04-16 14:43 | 38.61825 | -111.83636 | 34874 ft | 514 kts | 97° |
| 2026-04-16 14:44 | 38.61451 | -111.74505 | 34873 ft | 514 kts | 97° |
| 2026-04-16 14:44 | 38.61068 | -111.65442 | 34868 ft | 513 kts | 97° |
| 2026-04-16 14:45 | 38.60678 | -111.56302 | 34871 ft | 513 kts | 97° |
| 2026-04-16 14:45 | 38.60282 | -111.47192 | 34868 ft | 513 kts | 97° |
| 2026-04-16 14:46 | 38.59881 | -111.38077 | 34859 ft | 513 kts | 97° |
| 2026-04-16 14:46 | 38.59477 | -111.29013 | 34852 ft | 514 kts | 97° |
| 2026-04-16 14:47 | 38.59065 | -111.19881 | 34841 ft | 514 kts | 97° |
| 2026-04-16 14:47 | 38.58643 | -111.10737 | 34843 ft | 515 kts | 97° |
| 2026-04-16 14:48 | 38.58209 | -111.01650 | 34866 ft | 515 kts | 97° |
| 2026-04-16 14:48 | 38.57769 | -110.92500 | 34897 ft | 515 kts | 97° |
| 2026-04-16 14:49 | 38.57330 | -110.83360 | 34917 ft | 515 kts | 97° |
| 2026-04-16 14:49 | 38.56880 | -110.74203 | 34931 ft | 516 kts | 97° |
| 2026-04-16 14:50 | 38.56423 | -110.65039 | 34937 ft | 516 kts | 97° |
| 2026-04-16 14:50 | 38.55961 | -110.55944 | 34915 ft | 516 kts | 97° |
| 2026-04-16 14:51 | 38.55492 | -110.46793 | 34892 ft | 516 kts | 97° |
| 2026-04-16 14:51 | 38.55006 | -110.37636 | 34854 ft | 515 kts | 98° |
| 2026-04-16 14:53 | 38.53928 | -110.01101 | 34854 ft | 521 kts | 80° |
| 2026-04-16 14:54 | 38.55665 | -109.92101 | 34877 ft | 522 kts | 77° |
| 2026-04-16 14:54 | 38.57239 | -109.83062 | 34891 ft | 520 kts | 79° |
| 2026-04-16 14:55 | 38.58623 | -109.73988 | 34902 ft | 519 kts | 80° |
| 2026-04-16 14:55 | 38.59983 | -109.64917 | 34899 ft | 519 kts | 80° |
| 2026-04-16 14:56 | 38.60658 | -109.60388 | 34791 ft | 516 kts | 80° |
| 2026-04-16 14:56 | 38.61324 | -109.55920 | 34351 ft | 505 kts | 81° |
| 2026-04-16 14:56 | 38.61962 | -109.51603 | 33712 ft | 499 kts | 81° |
| 2026-04-16 14:56 | 38.62597 | -109.47254 | 33056 ft | 492 kts | 81° |
| 2026-04-16 14:57 | 38.63232 | -109.42976 | 32346 ft | 488 kts | 80° |
| 2026-04-16 14:57 | 38.63860 | -109.38741 | 31698 ft | 481 kts | 81° |
| 2026-04-16 14:57 | 38.64478 | -109.34557 | 31059 ft | 476 kts | 81° |
| 2026-04-16 14:57 | 38.65084 | -109.30414 | 30430 ft | 471 kts | 81° |
| 2026-04-16 14:58 | 38.65686 | -109.26315 | 29799 ft | 467 kts | 81° |
| 2026-04-16 14:58 | 38.66828 | -109.18231 | 28589 ft | 456 kts | 82° |
| 2026-04-16 14:58 | 38.67354 | -109.14271 | 28006 ft | 459 kts | 82° |
| 2026-04-16 14:59 | 38.67909 | -109.10211 | 27364 ft | 464 kts | 81° |
| 2026-04-16 14:59 | 38.68480 | -109.06156 | 26788 ft | 461 kts | 81° |
| 2026-04-16 14:59 | 38.69063 | -109.02124 | 26136 ft | 458 kts | 81° |
| 2026-04-16 14:59 | 38.69636 | -108.98137 | 25573 ft | 452 kts | 81° |
| 2026-04-16 15:00 | 38.70195 | -108.94196 | 24953 ft | 447 kts | 81° |
| 2026-04-16 15:00 | 38.70747 | -108.90307 | 24379 ft | 442 kts | 81° |
| 2026-04-16 15:00 | 38.71291 | -108.86455 | 23792 ft | 437 kts | 81° |
| 2026-04-16 15:00 | 38.71828 | -108.82641 | 23171 ft | 433 kts | 81° |
| 2026-04-16 15:01 | 38.72358 | -108.78871 | 22654 ft | 426 kts | 81° |
| 2026-04-16 15:01 | 38.72880 | -108.75154 | 22071 ft | 422 kts | 81° |
| 2026-04-16 15:01 | 38.73388 | -108.71522 | 21527 ft | 419 kts | 81° |
| 2026-04-16 15:01 | 38.73906 | -108.67869 | 20994 ft | 415 kts | 81° |
| 2026-04-16 15:02 | 38.74423 | -108.64231 | 20414 ft | 414 kts | 81° |
| 2026-04-16 15:02 | 38.74931 | -108.60615 | 19878 ft | 410 kts | 81° |
| 2026-04-16 15:02 | 38.75429 | -108.57037 | 19337 ft | 406 kts | 81° |
| 2026-04-16 15:02 | 38.75939 | -108.53494 | 18795 ft | 402 kts | 81° |
| 2026-04-16 15:03 | 38.76112 | -108.52304 | 18608 ft | 401 kts | 81° |
| 2026-04-16 15:03 | 38.76535 | -108.49351 | 18171 ft | 397 kts | 81° |
| 2026-04-16 15:03 | 38.77011 | -108.45931 | 17661 ft | 391 kts | 81° |
| 2026-04-16 15:03 | 38.77480 | -108.42532 | 17161 ft | 386 kts | 81° |
| 2026-04-16 15:04 | 38.77943 | -108.39164 | 16680 ft | 382 kts | 81° |
| 2026-04-16 15:04 | 38.78404 | -108.35810 | 16176 ft | 379 kts | 81° |
| 2026-04-16 15:04 | 38.78862 | -108.32487 | 15679 ft | 377 kts | 82° |
| 2026-04-16 15:04 | 38.79310 | -108.29185 | 15218 ft | 373 kts | 82° |
| 2026-04-16 15:05 | 38.79749 | -108.25922 | 14704 ft | 370 kts | 82° |
| 2026-04-16 15:05 | 38.80172 | -108.22749 | 14260 ft | 363 kts | 82° |
| 2026-04-16 15:05 | 38.80592 | -108.19579 | 13777 ft | 358 kts | 82° |
| 2026-04-16 15:05 | 38.81007 | -108.16460 | 13324 ft | 351 kts | 82° |
| 2026-04-16 15:06 | 38.81423 | -108.13394 | 12841 ft | 346 kts | 82° |
| 2026-04-16 15:06 | 38.81836 | -108.10381 | 12398 ft | 340 kts | 82° |
| 2026-04-16 15:06 | 38.82000 | -108.07387 | 11923 ft | 333 kts | 95° |
| 2026-04-16 15:06 | 38.81641 | -108.04511 | 11552 ft | 321 kts | 110° |
| 2026-04-16 15:07 | 38.80800 | -108.01914 | 11071 ft | 312 kts | 125° |
| 2026-04-16 15:07 | 38.79550 | -107.99696 | 10705 ft | 303 kts | 131° |
| 2026-04-16 15:07 | 38.78310 | -107.97529 | 10295 ft | 301 kts | 129° |
| 2026-04-16 15:07 | 38.77273 | -107.95197 | 9934 ft | 301 kts | 121° |
| 2026-04-16 15:08 | 38.76376 | -107.92779 | 9535 ft | 298 kts | 119° |
| 2026-04-16 15:08 | 38.75322 | -107.90627 | 9239 ft | 283 kts | 139° |
| 2026-04-16 15:08 | 38.73664 | -107.89534 | 9043 ft | 262 kts | 175° |
| 2026-04-16 15:08 | 38.71894 | -107.89471 | 8839 ft | 251 kts | 183° |
| 2026-04-16 15:09 | 38.70167 | -107.89493 | 8610 ft | 244 kts | 182° |
| 2026-04-16 15:09 | 38.68491 | -107.89486 | 8436 ft | 237 kts | 182° |
| 2026-04-16 15:09 | 38.66872 | -107.89470 | 8225 ft | 226 kts | 181° |
| 2026-04-16 15:09 | 38.65406 | -107.89441 | 8111 ft | 198 kts | 181° |
| 2026-04-16 15:10 | 38.64113 | -107.89409 | 7889 ft | 174 kts | 182° |
| 2026-04-16 15:10 | 38.62959 | -107.89409 | 7604 ft | 159 kts | 182° |
| 2026-04-16 15:10 | 38.61879 | -107.89401 | 7383 ft | 151 kts | 181° |
| 2026-04-16 15:10 | 38.60834 | -107.89398 | 7216 ft | 150 kts | 181° |
| 2026-04-16 15:11 | 38.59772 | -107.89398 | 7038 ft | 156 kts | 180° |
| 2026-04-16 15:11 | 38.58684 | -107.89398 | 6800 ft | 159 kts | 179° |
| 2026-04-16 15:11 | 38.57573 | -107.89388 | 6530 ft | 159 kts | 179° |
| 2026-04-16 15:11 | 38.56475 | -107.89369 | 6338 ft | 156 kts | 179° |
| 2026-04-16 15:12 | 38.55388 | -107.89355 | 6153 ft | 157 kts | 179° |
| 2026-04-16 15:12 | 38.54303 | -107.89268 | 5971 ft | 153 kts | 183° |
| 2026-04-16 15:12 | 38.53231 | -107.89271 | 5784 ft | 155 kts | 182° |
| 2026-04-16 15:12 | 38.52179 | -107.89262 | 5722 ft | 143 kts | 181° |
| 2026-04-16 15:13 | 38.51261 | -107.89271 | 5726 ft | 117 kts | 179° |
| 2026-04-16 15:13 | 38.50724 | -107.89392 | 5733 ft | 48 kts | 192° |
| 2026-04-16 15:13 | 38.50520 | -107.89407 | 5732 ft | 5 kts | 188° |
| 2026-04-16 15:13 | 38.50489 | -107.89421 | 5731 ft | 9 kts | 229° |
| 2026-04-16 15:14 | 38.50430 | -107.89540 | 5735 ft | 17 kts | 233° |
| 2026-04-16 15:14 | 38.50346 | -107.89665 | 5729 ft | 20 kts | 229° |
| 2026-04-16 15:14 | 38.50254 | -107.89802 | 5729 ft | 18 kts | 229° |
| 2026-04-16 15:14 | 38.50193 | -107.89883 | 5731 ft | 8 kts | 213° |
| 2026-04-16 15:15 | 38.50160 | -107.89893 | 5729 ft | 1 kts | 185° |
| 2026-04-16 15:15 | 38.50144 | -107.89898 | 5732 ft | 6 kts | 199° |
| 2026-04-16 15:15 | 38.50126 | -107.89912 | 5731 ft | 4 kts | 223° |
| 2026-04-16 15:15 | 38.50120 | -107.89920 | 5730 ft | 1 kts | 224° |
| 2026-04-16 15:16 | 38.50117 | -107.89924 | 5731 ft | 0 kts | 224° |
| 2026-04-16 15:29 | 38.50115 | -107.89928 | 5724 ft | 0 kts | 226° |